EGXC - Coningsby Royal Air Force Base
Distance from station: E 5mi, 14km
Updated: 10/18/2017 10:50am
Mist, Overcast
Mist, Overcast
 Wind from E
Wind: E 9 mph , 15 km/h
Temperature: 54°F , 12°C
Dew Point: 52°F , 11°C
Humidity: 94%
Barometer: 29.83 inHg , 1010 hPa
Summary: Mist
Clouds: Overcast
Visibility: 4 miles , 7 km
Cloud details: Partly Cloudy 500 ft
Overcast 1500 ft
2017/10/18 17:50 EGXC 181750Z 08008KT 7000 BR SCT005 OVC015 12/11 Q1010 YLO1